Airfield :
LOGIN :

Register | Disclaimer

   EN    FR    IT 

 










Legend :    VFR   Marginal VFR   IFR   Intensive IFR   Very Intensive IFR
Visi :
Ceiling :
>= 8 km
>= 3000ft
5 to 8 km
1000 to 3000 ft
1500m to 5 km
500 to 1000 ft
800 to 1500m
200 to 500 ft
< 800m
< 200 ft
Symbols :   Thunderstorms  Fog  Heavy snow  Heavy precipitations  Wind > 20 kt
SIGMETs :     Misc.  Thunderstorms  Icing  Turbulence  Mountain Waves  Volcanic Ashes







- Airport Elevation : 1475 ft


LSZC - Buochs Stans

CURRENT METAR :
  • 100150Z AUTO 22010G24KT 9999 FEW039 SCT048 BKN060 07/M00 Q1021

EXPIRED METARs :
  • 100120Z AUTO 25008KT 9999 FEW035 SCT050 07/02 Q1021
  • 100050Z AUTO 24009G20KT 180V310 9999 FEW037 BKN060 08/00 Q1020
  • 100020Z AUTO 24007KT 9999 -RA FEW039 BKN045 BKN050 08/02 Q1020
  • 092350Z AUTO 18006KT 110V230 9999 SCT043 BKN049 BKN060 09/M00 Q1019
  • 092320Z AUTO VRB06KT 9999 FEW038 SCT050 OVC120 07/03 Q1019 REDZ

Expired Forecast.
No reported NOTAMs for that airfield.



MET'MAP, your aeronautical weather chart ! - Copyright ORBIFLY December 2007 - Disclaimer

ORBIFLY MET'MAP TEAM :

Programming & Development : Alexandra Zaïnal
Concept & Development : Baudouin d'Aumeries
Co-Development & Prog : Marc-Olivier Méhu
Technical & hardware support : Manuel Goepfert

Contact : metmap@orbifly.com




SOURCES & CREDITS :

   NOAA